Main page
METAR-TAF:

METAR-TAF

Airports :

Edinburgh Airport

Edinburgh, Scotland

latitude: 55-57N, longitude: 003-21W, elevation: 41 m

Current weather observation

The report was made 39 minutes ago, at 00:20 UTC
Wind 7 kt from the West/Southwest
Temperature 9°C
Humidity 87%
Pressure 1029 hPa
Visibility 10 km or more
no clouds below 1500 m and no cumulonimbus

METAR: EGPH 230020Z 24007KT CAVOK 09/07 Q1029

Time: 01:59 (00:59 UTC)

Forecast

The report was made 1 hour and 59 minutes ago, at 23:00 UTC
Forecast valid from 23 at 00 UTC to 23 at 24 UTC
Wind 9 kt from the West
Visibility 10 km or more
Few clouds at a height of 3000 ft

TAF: EGPH 222300Z 2300/2324 27009KT 9999 FEW030

Weather observations and forecasts of more than 4000 airports (METAR and TAF reports).

The available stations are represented by yellow and red dots on the map.

Hover mouse over dot to see the name of the station.

Then click to see weather observations and forecasts.

To change the map : click on the green buttons with a black cross to zoom in, on the green button with a dash to zoom out, or on the green arrows for adjacent maps.


METAR-TAF: